createdAt,value
2023-02-18T00:01:41.278Z,7.20
2023-02-18T00:04:07.487Z,7.20
2023-02-18T00:06:33.623Z,7.10
2023-02-18T00:09:01.986Z,7.00
2023-02-18T00:11:27.101Z,7.00
2023-02-18T00:13:52.697Z,6.90
2023-02-18T00:16:17.742Z,6.80
2023-02-18T00:18:42.182Z,6.70
2023-02-18T00:21:10.497Z,6.70
2023-02-18T00:23:35.596Z,6.70
2023-02-18T00:26:04.377Z,6.80
2023-02-18T00:28:29.563Z,6.90
2023-02-18T00:30:53.962Z,6.90
2023-02-18T00:33:18.570Z,6.90
2023-02-18T00:35:42.903Z,6.80
2023-02-18T00:38:10.663Z,6.70
2023-02-18T00:40:38.872Z,6.70
2023-02-18T00:43:03.300Z,6.70
2023-02-18T00:45:29.567Z,6.70
2023-02-18T00:47:54.214Z,6.70
2023-02-18T00:50:18.758Z,6.80
2023-02-18T00:52:43.163Z,6.80
2023-02-18T00:55:09.357Z,6.70
2023-02-18T00:57:33.858Z,6.60
2023-02-18T00:59:58.226Z,6.70
2023-02-18T01:02:22.858Z,6.60
2023-02-18T01:04:47.208Z,6.70
2023-02-18T01:07:12.065Z,6.70
2023-02-18T01:09:36.401Z,6.90
2023-02-18T01:12:02.225Z,6.80
2023-02-18T01:14:26.529Z,6.90
2023-02-18T01:16:52.443Z,6.90
2023-02-18T01:19:16.833Z,6.90
2023-02-18T01:21:41.264Z,6.80
2023-02-18T01:24:06.595Z,6.80
2023-02-18T01:26:32.926Z,6.80
2023-02-18T01:28:59.180Z,6.90
2023-02-18T01:31:23.648Z,6.80
2023-02-18T01:33:48.831Z,6.80
2023-02-18T01:36:13.666Z,6.80
2023-02-18T01:38:38.652Z,6.80
2023-02-18T01:41:03.121Z,6.70
2023-02-18T01:43:28.069Z,6.80
2023-02-18T01:46:13.643Z,6.80
2023-02-18T01:48:42.250Z,6.80
2023-02-18T01:51:11.675Z,6.90
2023-02-18T01:53:40.645Z,6.90
2023-02-18T01:56:08.434Z,6.90
2023-02-18T01:58:33.827Z,6.90
2023-02-18T02:00:59.166Z,7.00
2023-02-18T02:03:25.599Z,7.10
2023-02-18T02:05:50.008Z,7.20
2023-02-18T02:08:14.676Z,7.20
2023-02-18T02:10:53.082Z,7.10
2023-02-18T02:13:25.171Z,7.20
2023-02-18T02:16:16.648Z,7.20
2023-02-18T02:18:57.367Z,7.20
2023-02-18T02:22:06.168Z,7.20
2023-02-18T02:24:55.087Z,7.10
2023-02-18T02:27:25.532Z,7.30
2023-02-18T02:30:32.544Z,7.30
2023-02-18T02:33:24.779Z,7.30
2023-02-18T02:35:57.511Z,7.30
2023-02-18T02:38:30.703Z,7.40
2023-02-18T02:41:03.961Z,7.30
2023-02-18T02:43:40.018Z,7.30
2023-02-18T02:46:08.342Z,7.40
2023-02-18T02:48:40.332Z,7.40
2023-02-18T02:51:11.960Z,7.50
2023-02-18T02:53:38.341Z,7.50
2023-02-18T02:56:02.702Z,7.50
2023-02-18T02:58:28.319Z,7.60
2023-02-18T03:01:07.766Z,7.50
2023-02-18T03:03:48.698Z,7.50
2023-02-18T03:06:33.352Z,7.60
2023-02-18T03:09:08.435Z,7.50
2023-02-18T03:11:38.822Z,7.60
2023-02-18T03:14:12.123Z,7.60
2023-02-18T03:16:46.081Z,7.60
2023-02-18T03:19:19.366Z,7.60
2023-02-18T03:21:49.114Z,7.60
2023-02-18T03:24:17.941Z,7.60
2023-02-18T03:26:46.788Z,7.60
2023-02-18T03:29:14.817Z,7.50
2023-02-18T03:31:43.964Z,7.60
2023-02-18T03:34:13.656Z,7.50
2023-02-18T03:36:41.613Z,7.40
2023-02-18T03:39:10.672Z,7.30
2023-02-18T03:41:35.769Z,7.40
2023-02-18T03:44:02.736Z,7.50
2023-02-18T03:46:27.596Z,7.50
2023-02-18T03:48:52.094Z,7.50
2023-02-18T03:51:19.674Z,7.50
2023-02-18T03:53:44.020Z,7.40
2023-02-18T03:56:11.604Z,7.50
2023-02-18T03:58:35.927Z,7.40
2023-02-18T04:01:00.395Z,7.30
2023-02-18T04:03:24.751Z,7.30
2023-02-18T04:05:49.276Z,7.30
2023-02-18T04:08:13.676Z,7.30
2023-02-18T04:10:38.041Z,7.30
2023-02-18T04:13:03.791Z,7.30
2023-02-18T04:15:30.509Z,7.30
2023-02-18T04:17:54.825Z,7.30
2023-02-18T04:20:19.511Z,7.20
2023-02-18T04:22:44.394Z,7.20
2023-02-18T04:25:09.601Z,7.30
2023-02-18T04:27:33.847Z,7.20
2023-02-18T04:29:59.776Z,7.20
2023-02-18T04:32:24.073Z,7.20
2023-02-18T04:34:48.404Z,7.20
2023-02-18T04:37:12.812Z,7.30
2023-02-18T04:39:37.161Z,7.20
2023-02-18T04:42:01.537Z,7.10
2023-02-18T04:44:25.860Z,7.00
2023-02-18T04:46:51.861Z,7.00
2023-02-18T04:49:16.202Z,7.00
2023-02-18T04:51:40.641Z,7.00
2023-02-18T04:54:05.291Z,6.90
2023-02-18T04:56:30.011Z,7.00
2023-02-18T04:58:54.366Z,7.00
2023-02-18T05:01:18.880Z,7.00
2023-02-18T05:03:46.076Z,7.00
2023-02-18T05:06:10.784Z,7.00
2023-02-18T05:08:35.341Z,7.00
2023-02-18T05:10:59.820Z,7.00
2023-02-18T05:13:24.192Z,6.90
2023-02-18T05:15:48.745Z,6.80
2023-02-18T05:18:13.367Z,6.80
2023-02-18T05:20:39.093Z,6.90
2023-02-18T05:23:03.505Z,7.00
2023-02-18T05:25:27.972Z,7.10
2023-02-18T05:27:52.375Z,7.10
2023-02-18T05:30:16.998Z,7.10
2023-02-18T05:32:41.419Z,7.00
2023-02-18T05:35:06.731Z,7.00
2023-02-18T05:37:32.644Z,7.00
2023-02-18T05:39:57.175Z,7.00
2023-02-18T05:42:23.444Z,7.00
2023-02-18T05:44:47.979Z,6.90
2023-02-18T05:47:13.696Z,6.80
2023-02-18T05:49:38.492Z,6.80
2023-02-18T05:52:03.251Z,6.80
2023-02-18T05:54:29.768Z,6.70
2023-02-18T05:56:54.749Z,6.70
2023-02-18T05:59:19.643Z,6.70
2023-02-18T06:01:44.131Z,6.80
2023-02-18T06:04:08.561Z,7.00
2023-02-18T06:06:33.888Z,7.10
2023-02-18T06:08:59.258Z,7.10
2023-02-18T06:11:25.461Z,7.20
2023-02-18T06:13:49.759Z,7.30
2023-02-18T06:16:14.259Z,7.30
2023-02-18T06:18:38.693Z,7.40
2023-02-18T06:21:03.199Z,7.40
2023-02-18T06:23:30.106Z,7.50
2023-02-18T06:25:54.713Z,7.60
2023-02-18T06:28:20.597Z,7.70
2023-02-18T06:30:45.944Z,7.70
2023-02-18T06:33:10.260Z,7.80
2023-02-18T06:35:35.121Z,7.80
2023-02-18T06:37:59.444Z,7.80
2023-02-18T06:40:23.875Z,7.90
2023-02-18T06:42:48.173Z,7.90
2023-02-18T06:45:13.937Z,7.90
2023-02-18T06:47:38.490Z,7.80
2023-02-18T06:50:02.893Z,7.70
2023-02-18T06:52:28.069Z,7.80
2023-02-18T06:54:52.589Z,8.00
2023-02-18T06:57:16.947Z,8.20
2023-02-18T06:59:41.394Z,8.30
2023-02-18T07:02:07.157Z,8.40
2023-02-18T07:04:33.022Z,8.50
2023-02-18T07:06:57.537Z,8.60
2023-02-18T07:09:22.005Z,8.70
2023-02-18T07:11:46.271Z,8.80
2023-02-18T07:14:10.897Z,9.00
2023-02-18T07:16:35.249Z,9.00
2023-02-18T07:19:01.057Z,9.00
2023-02-18T07:21:25.651Z,9.00
2023-02-18T07:23:50.108Z,9.00
2023-02-18T07:26:15.585Z,8.90
2023-02-18T07:28:40.510Z,8.90
2023-02-18T07:31:05.368Z,9.00
2023-02-18T07:33:30.001Z,9.10
2023-02-18T07:36:00.479Z,9.10
2023-02-18T07:38:25.770Z,9.20
2023-02-18T07:40:50.167Z,9.30
2023-02-18T07:43:14.526Z,9.40
2023-02-18T07:45:39.958Z,9.30
2023-02-18T07:48:04.507Z,9.20
2023-02-18T07:50:29.052Z,9.40
2023-02-18T07:52:54.874Z,9.40
2023-02-18T07:55:19.407Z,9.50
2023-02-18T08:00:13.788Z,9.60
2023-02-18T08:02:38.180Z,9.70
2023-02-18T08:05:02.500Z,9.60
2023-02-18T08:07:27.199Z,9.70
2023-02-18T08:09:51.727Z,9.70
2023-02-18T08:12:16.082Z,9.70
2023-02-18T08:14:42.488Z,9.70
2023-02-18T08:17:08.218Z,9.80
2023-02-18T08:19:32.885Z,9.80
2023-02-18T08:21:57.232Z,9.90
2023-02-18T08:24:22.564Z,9.90
2023-02-18T08:26:59.855Z,9.90
2023-02-18T08:29:25.427Z,9.90
2023-02-18T08:31:49.889Z,9.90
2023-02-18T08:34:15.738Z,10.00
2023-02-18T08:36:40.005Z,10.00
2023-02-18T08:39:04.749Z,10.00
2023-02-18T08:41:29.047Z,10.00
2023-02-18T08:43:53.475Z,10.10
2023-02-18T08:46:33.401Z,10.10
2023-02-18T08:49:01.064Z,10.20
2023-02-18T08:51:26.955Z,10.10
2023-02-18T08:53:51.446Z,10.20
2023-02-18T08:56:17.239Z,10.20
2023-02-18T08:58:42.064Z,10.20
2023-02-18T09:01:08.903Z,10.20
2023-02-18T09:03:33.492Z,10.20
2023-02-18T09:05:58.702Z,10.30
2023-02-18T09:08:24.540Z,10.30
2023-02-18T09:10:50.312Z,10.30
2023-02-18T09:13:14.662Z,10.40
2023-02-18T09:15:39.115Z,10.30
2023-02-18T09:18:03.487Z,10.40
2023-02-18T09:20:28.842Z,10.30
2023-02-18T09:22:53.290Z,10.40
2023-02-18T09:25:20.721Z,10.40
2023-02-18T09:27:45.043Z,10.40
2023-02-18T09:30:10.553Z,10.50
2023-02-18T09:32:35.574Z,10.50
2023-02-18T09:35:00.157Z,10.50
2023-02-18T09:37:24.401Z,10.50
2023-02-18T09:39:49.660Z,10.50
2023-02-18T09:42:19.769Z,10.50
2023-02-18T09:44:46.801Z,10.50
2023-02-18T09:47:15.070Z,10.60
2023-02-18T09:49:42.529Z,10.60
2023-02-18T09:52:13.375Z,10.60
2023-02-18T09:54:37.838Z,10.70
2023-02-18T09:57:03.073Z,10.70
2023-02-18T09:59:29.867Z,10.80
2023-02-18T10:01:57.188Z,11.00
2023-02-18T10:04:24.301Z,11.00
2023-02-18T10:06:50.110Z,11.10
2023-02-18T10:09:21.963Z,11.10
2023-02-18T10:11:49.760Z,11.10
2023-02-18T10:14:16.212Z,11.20
2023-02-18T10:16:42.697Z,11.20
2023-02-18T10:19:17.491Z,11.30
2023-02-18T10:21:42.194Z,11.40
2023-02-18T10:24:14.304Z,11.50
2023-02-18T10:26:40.580Z,11.50
2023-02-18T10:29:05.310Z,11.60
2023-02-18T10:31:35.394Z,11.80
2023-02-18T10:34:08.397Z,11.80
2023-02-18T10:36:39.250Z,11.90
2023-02-18T10:39:45.647Z,12.00
2023-02-18T10:42:22.259Z,12.00
2023-02-18T10:44:57.711Z,12.10
2023-02-18T10:47:34.522Z,12.20
2023-02-18T10:50:03.523Z,12.30
2023-02-18T10:52:31.653Z,12.40
2023-02-18T10:55:04.513Z,12.40
2023-02-18T10:57:29.311Z,12.50
2023-02-18T11:00:00.179Z,12.60
2023-02-18T11:02:30.985Z,12.50
2023-02-18T11:05:02.026Z,12.50
2023-02-18T11:07:34.256Z,12.60
2023-02-18T11:10:18.170Z,12.60
2023-02-18T11:12:47.618Z,12.60
2023-02-18T11:15:20.874Z,12.70
2023-02-18T11:17:47.066Z,12.70
2023-02-18T11:20:31.367Z,12.70
2023-02-18T11:23:00.067Z,12.70
2023-02-18T11:25:26.773Z,12.80
2023-02-18T11:27:53.785Z,12.90
2023-02-18T11:30:24.072Z,12.80
2023-02-18T11:32:50.899Z,12.90
2023-02-18T11:35:33.315Z,13.00
2023-02-18T11:38:00.020Z,13.00
2023-02-18T11:40:27.662Z,13.00
2023-02-18T11:42:52.149Z,13.00
2023-02-18T11:45:29.546Z,13.00
2023-02-18T11:48:01.373Z,13.00
2023-02-18T11:50:27.545Z,13.10
2023-02-18T11:52:53.997Z,13.20
2023-02-18T11:55:21.055Z,13.20
2023-02-18T11:57:49.315Z,13.30
2023-02-18T12:00:20.941Z,13.20
2023-02-18T12:02:45.564Z,13.30
2023-02-18T12:05:15.946Z,13.20
2023-02-18T12:07:45.966Z,13.30
2023-02-18T12:10:15.567Z,13.30
2023-02-18T12:12:47.090Z,13.30
2023-02-18T12:15:17.630Z,13.40
2023-02-18T12:17:54.501Z,13.50
2023-02-18T12:20:31.026Z,13.50
2023-02-18T12:23:04.289Z,13.50
2023-02-18T12:25:40.149Z,13.60
2023-02-18T12:28:26.300Z,13.70
2023-02-18T12:31:12.418Z,13.80
2023-02-18T12:33:45.739Z,14.00
2023-02-18T12:36:20.867Z,14.10
2023-02-18T12:39:17.987Z,14.10
2023-02-18T12:42:01.453Z,14.10
2023-02-18T12:44:45.401Z,14.10
2023-02-18T12:47:31.695Z,14.20
2023-02-18T12:50:26.371Z,14.20
2023-02-18T12:53:03.769Z,14.20
2023-02-18T12:55:40.334Z,14.20
2023-02-18T12:58:17.842Z,14.30
2023-02-18T13:01:12.208Z,14.30
2023-02-18T13:04:04.785Z,14.20
2023-02-18T13:06:43.775Z,14.20
2023-02-18T13:09:18.862Z,14.20
2023-02-18T13:11:51.734Z,14.30
2023-02-18T13:14:22.247Z,14.40
2023-02-18T13:16:52.864Z,14.40
2023-02-18T13:19:23.960Z,14.50
2023-02-18T13:21:52.405Z,14.60
2023-02-18T13:24:24.306Z,14.80
2023-02-18T13:26:52.422Z,14.90
2023-02-18T13:29:28.158Z,15.10
2023-02-18T13:32:03.408Z,15.20
2023-02-18T13:34:33.783Z,15.30
2023-02-18T13:37:08.051Z,15.20
2023-02-18T13:39:33.764Z,15.20
2023-02-18T13:42:25.810Z,15.20
2023-02-18T13:45:31.454Z,15.30
2023-02-18T13:47:56.913Z,15.30
2023-02-18T13:50:32.226Z,15.40
2023-02-18T13:53:15.005Z,15.40
2023-02-18T13:55:43.473Z,15.40
2023-02-18T13:58:17.607Z,15.40
2023-02-18T14:00:50.984Z,15.40
2023-02-18T14:03:33.450Z,15.40
2023-02-18T14:05:58.420Z,15.40
2023-02-18T14:08:34.689Z,15.40
2023-02-18T14:11:34.000Z,15.30
2023-02-18T14:14:17.873Z,15.40
2023-02-18T14:17:30.960Z,15.40
2023-02-18T14:19:56.336Z,15.40
2023-02-18T14:22:29.982Z,15.30
2023-02-18T14:25:02.274Z,15.30
2023-02-18T14:27:27.674Z,15.30
2023-02-18T14:29:54.409Z,15.40
2023-02-18T14:32:22.170Z,15.50
2023-02-18T14:35:14.441Z,15.40
2023-02-18T14:38:06.622Z,15.50
2023-02-18T14:40:59.084Z,15.50
2023-02-18T14:43:41.213Z,15.50
2023-02-18T14:46:18.111Z,15.60
2023-02-18T14:49:12.681Z,15.60
2023-02-18T14:51:37.742Z,15.50
2023-02-18T14:54:06.899Z,15.50
2023-02-18T14:56:31.488Z,15.50
2023-02-18T14:59:01.083Z,15.50
2023-02-18T15:01:30.545Z,15.40
2023-02-18T15:03:57.586Z,15.40
2023-02-18T15:06:27.452Z,15.30
2023-02-18T15:08:53.041Z,15.30
2023-02-18T15:11:18.450Z,15.40
2023-02-18T15:13:45.361Z,15.30
2023-02-18T15:16:15.156Z,15.30
2023-02-18T15:18:42.439Z,15.20
2023-02-18T15:21:10.395Z,15.00
2023-02-18T15:23:38.308Z,15.00
2023-02-18T15:26:02.888Z,14.90
2023-02-18T15:28:30.099Z,14.90
2023-02-18T15:30:54.836Z,14.90
2023-02-18T15:33:24.034Z,14.90
2023-02-18T15:35:49.004Z,14.80
2023-02-18T15:38:18.654Z,14.80
2023-02-18T15:40:43.496Z,14.70
2023-02-18T15:43:08.946Z,14.60
2023-02-18T15:45:36.375Z,14.50
2023-02-18T15:48:02.000Z,14.40
2023-02-18T15:50:28.614Z,14.30
2023-02-18T15:52:54.727Z,14.30
2023-02-18T15:55:28.341Z,14.20
2023-02-18T15:57:54.530Z,14.10
2023-02-18T16:00:22.278Z,14.10
2023-02-18T16:02:55.893Z,14.10
2023-02-18T16:05:32.235Z,14.00
2023-02-18T16:08:01.941Z,13.90
2023-02-18T16:10:45.045Z,13.90
2023-02-18T16:13:09.597Z,13.80
2023-02-18T16:15:40.536Z,13.80
2023-02-18T16:18:07.148Z,13.70
2023-02-18T16:20:36.067Z,13.70
2023-02-18T16:23:11.711Z,13.60
2023-02-18T16:25:44.062Z,13.70
2023-02-18T16:28:16.444Z,13.70
2023-02-18T16:30:42.145Z,13.80
2023-02-18T16:33:06.561Z,13.70
2023-02-18T16:35:43.943Z,13.70
2023-02-18T16:38:18.758Z,13.60
2023-02-18T16:40:44.724Z,13.60
2023-02-18T16:43:15.739Z,13.50
2023-02-18T16:45:43.931Z,13.40
2023-02-18T16:48:12.805Z,13.30
2023-02-18T16:50:37.285Z,13.30
2023-02-18T16:53:02.654Z,13.20
2023-02-18T16:55:29.744Z,13.30
2023-02-18T16:57:56.182Z,13.30
2023-02-18T17:00:21.288Z,13.20
2023-02-18T17:02:47.159Z,13.20
2023-02-18T17:05:26.420Z,13.30
2023-02-18T17:07:51.731Z,13.20
2023-02-18T17:10:16.717Z,13.20
2023-02-18T17:12:43.678Z,13.20
2023-02-18T17:15:15.641Z,13.10
2023-02-18T17:17:40.034Z,13.00
2023-02-18T17:20:04.793Z,13.00
2023-02-18T17:22:29.501Z,12.90
2023-02-18T17:24:53.896Z,12.80
2023-02-18T17:27:21.161Z,13.40
2023-02-18T17:29:45.660Z,13.30
2023-02-18T17:32:14.481Z,13.20
2023-02-18T17:34:41.103Z,13.10
2023-02-18T17:37:05.669Z,13.10
2023-02-18T17:39:31.418Z,12.90
2023-02-18T17:41:55.947Z,12.80
2023-02-18T17:44:22.085Z,12.70
2023-02-18T17:46:46.812Z,12.70
2023-02-18T17:49:12.615Z,12.60
2023-02-18T17:51:38.496Z,12.50
2023-02-18T17:54:02.968Z,12.40
2023-02-18T17:56:27.549Z,12.40
2023-02-18T17:58:51.977Z,12.40
2023-02-18T18:01:17.242Z,12.30
2023-02-18T18:03:41.743Z,12.30
2023-02-18T18:06:15.525Z,12.20
2023-02-18T18:08:40.113Z,12.20
2023-02-18T18:11:06.002Z,12.10
2023-02-18T18:13:32.424Z,12.10
2023-02-18T18:15:58.142Z,12.10
2023-02-18T18:18:22.709Z,12.10
2023-02-18T18:20:49.790Z,12.20
2023-02-18T18:23:18.176Z,12.10
2023-02-18T18:25:45.483Z,12.10
2023-02-18T18:28:10.540Z,12.10
2023-02-18T18:30:36.887Z,12.00
2023-02-18T18:33:01.377Z,11.90
2023-02-18T18:35:28.699Z,11.90
2023-02-18T18:37:53.992Z,11.90
2023-02-18T18:40:21.312Z,11.90
2023-02-18T18:42:45.664Z,11.80
2023-02-18T18:45:19.665Z,11.80
2023-02-18T18:47:44.274Z,11.80
2023-02-18T18:50:09.556Z,11.80
2023-02-18T18:52:34.218Z,11.70
2023-02-18T18:54:58.560Z,11.60
2023-02-18T18:57:24.324Z,11.60
2023-02-18T18:59:48.641Z,11.70
2023-02-18T19:02:16.922Z,11.70
2023-02-18T19:04:41.345Z,11.60
2023-02-18T19:07:05.788Z,11.60
2023-02-18T19:09:30.223Z,11.60
2023-02-18T19:11:54.683Z,11.50
2023-02-18T19:14:22.086Z,11.50
2023-02-18T19:16:46.823Z,11.50
2023-02-18T19:19:12.504Z,11.50
2023-02-18T19:21:37.345Z,11.60
2023-02-18T19:24:01.756Z,11.50
2023-02-18T19:26:26.283Z,11.40
2023-02-18T19:28:50.630Z,11.30
2023-02-18T19:31:16.724Z,11.30
2023-02-18T19:33:41.269Z,11.30
2023-02-18T19:36:08.851Z,11.30
2023-02-18T19:38:33.821Z,11.20
2023-02-18T19:40:58.373Z,11.20
2023-02-18T19:43:22.765Z,11.20
2023-02-18T19:45:48.892Z,11.20
2023-02-18T19:48:15.918Z,11.20
2023-02-18T19:50:42.261Z,11.20
2023-02-18T19:53:06.684Z,11.20
2023-02-18T19:55:31.200Z,11.10
2023-02-18T19:57:55.728Z,11.20
2023-02-18T20:00:22.342Z,11.10
2023-02-18T20:02:47.341Z,11.10
2023-02-18T20:05:14.453Z,11.10
2023-02-18T20:07:39.026Z,11.10
2023-02-18T20:10:03.871Z,11.00
2023-02-18T20:12:28.501Z,11.00
2023-02-18T20:14:53.105Z,11.00
2023-02-18T20:17:18.283Z,11.00
2023-02-18T20:19:42.687Z,11.00
2023-02-18T20:22:10.321Z,11.10
2023-02-18T20:24:35.183Z,11.00
2023-02-18T20:27:02.570Z,10.90
2023-02-18T20:29:29.039Z,10.90
2023-02-18T20:31:54.440Z,10.90
2023-02-18T20:34:19.334Z,11.00
2023-02-18T20:36:45.437Z,10.90
2023-02-18T20:39:16.187Z,10.90
2023-02-18T20:41:41.274Z,10.90
2023-02-18T20:44:05.905Z,10.90
2023-02-18T20:46:30.752Z,10.90
2023-02-18T20:48:55.661Z,10.90
2023-02-18T20:51:22.271Z,10.90
2023-02-18T20:53:47.963Z,10.90
2023-02-18T20:56:14.061Z,10.90
2023-02-18T20:58:38.627Z,10.90
2023-02-18T21:01:04.827Z,10.90
2023-02-18T21:03:29.776Z,10.90
2023-02-18T21:06:01.072Z,10.90
2023-02-18T21:08:26.363Z,10.90
2023-02-18T21:10:52.752Z,10.90
2023-02-18T21:13:19.107Z,10.90
2023-02-18T21:15:43.562Z,10.90
2023-02-18T21:18:08.034Z,10.80
2023-02-18T21:20:32.683Z,10.80
2023-02-18T21:22:57.286Z,10.70
2023-02-18T21:25:22.092Z,10.60
2023-02-18T21:27:46.615Z,10.60
2023-02-18T21:30:13.504Z,10.50
2023-02-18T21:32:38.033Z,10.40
2023-02-18T21:35:02.424Z,10.40
2023-02-18T21:37:27.056Z,10.40
2023-02-18T21:39:51.426Z,10.40
2023-02-18T21:42:15.839Z,10.40
2023-02-18T21:44:42.588Z,10.40
2023-02-18T21:47:08.823Z,10.40
2023-02-18T21:49:33.286Z,10.40
2023-02-18T21:51:58.181Z,10.40
2023-02-18T21:54:24.657Z,10.40
2023-02-18T21:56:49.511Z,10.30
2023-02-18T21:59:13.939Z,10.30
2023-02-18T22:01:38.430Z,10.30
2023-02-18T22:04:04.439Z,10.40
2023-02-18T22:06:28.835Z,10.30
2023-02-18T22:08:53.264Z,10.30
2023-02-18T22:11:18.864Z,10.30
2023-02-18T22:13:45.412Z,10.30
2023-02-18T22:16:09.794Z,10.30
2023-02-18T22:18:34.914Z,10.40
2023-02-18T22:21:01.012Z,10.30
2023-02-18T22:23:25.633Z,10.40
2023-02-18T22:25:52.212Z,10.40
2023-02-18T22:28:19.500Z,10.40
2023-02-18T22:30:43.967Z,10.40
2023-02-18T22:33:08.464Z,10.40
2023-02-18T22:35:33.714Z,10.40
2023-02-18T22:37:59.849Z,10.40
2023-02-18T22:40:24.498Z,10.50
2023-02-18T22:42:48.853Z,10.40
2023-02-18T22:45:13.318Z,10.40
2023-02-18T22:47:37.661Z,10.30
2023-02-18T22:50:02.059Z,10.20
2023-02-18T22:52:27.564Z,10.20
2023-02-18T22:54:54.999Z,10.30
2023-02-18T22:57:19.646Z,10.20
2023-02-18T22:59:44.024Z,10.30
2023-02-18T23:02:08.407Z,10.40
2023-02-18T23:04:33.059Z,10.40
2023-02-18T23:06:57.479Z,10.40
2023-02-18T23:09:24.356Z,10.50
2023-02-18T23:11:53.032Z,10.60
2023-02-18T23:14:21.508Z,10.70
2023-02-18T23:17:04.383Z,10.80
2023-02-18T23:19:31.794Z,10.90
2023-02-18T23:21:56.366Z,10.90
2023-02-18T23:24:22.806Z,11.00
2023-02-18T23:26:47.794Z,11.00
2023-02-18T23:29:13.817Z,11.00
2023-02-18T23:31:38.724Z,11.00
2023-02-18T23:34:03.335Z,11.00
2023-02-18T23:36:29.778Z,10.90
2023-02-18T23:38:56.085Z,10.90
2023-02-18T23:41:21.235Z,10.90
2023-02-18T23:43:45.922Z,10.90
2023-02-18T23:46:12.006Z,10.90
2023-02-18T23:48:39.529Z,10.90
2023-02-18T23:51:07.329Z,10.90
2023-02-18T23:53:33.689Z,10.90
2023-02-18T23:56:07.502Z,10.90
2023-02-18T23:58:32.044Z,10.90
